Time;durP1;ratioP1;P1;durP2;ratioP2;P2;SDS_P1;SDS_P2;PMS_P1;PMS_P2;Temp;Humidity;BMP_temperature;BMP_pressure;BME280_temperature;BME280_humidity;BME280_pressure;Samples;Min_cycle;Max_cycle;Signal;HPM_P1;HPM_P2
2023/03/26 00:00:04;;;;;;;;;;;;;;;;;;4906014;29;20074;-92
2023/03/26 00:02:30;;;;;;;;;;;;;;;;;;4905975;29;19922;-92
2023/03/26 00:04:56;;;;;;;;;;;;;;;;;;4905995;29;19922;-92
2023/03/26 00:07:22;;;;;;;;;;;;;;;;;;4906410;29;19974;-91
2023/03/26 00:09:47;;;;;;;;;;;;;;;;;;4905879;29;19998;-92
2023/03/26 00:12:13;;;;;;;;;;;;;;;;;;4905846;29;19933;-91
2023/03/26 00:14:39;;;;;;;;;;;;;;;;;;4906423;29;19930;-92
2023/03/26 00:17:07;;;;;;;;;;;;;;;;;;4905749;29;19922;-93
2023/03/26 00:19:33;;;;;;;;;;;;;;;;;;4905967;29;19927;-91
2023/03/26 00:21:59;;;;;;;;;;;;;;;;;;4905019;29;20367;-94
2023/03/26 00:24:28;;;;;;;;;;;;;;;;;;4905959;29;19930;-94
2023/03/26 00:26:54;;;;;;;;;;;;;;;;;;4906129;29;19923;-94
2023/03/26 00:29:21;;;;;;;;;;;;;;;;;;4906086;29;19930;-95
2023/03/26 00:31:47;;;;;;;;;;;;;;;;;;4906061;29;19922;-93
2023/03/26 00:34:14;;;;;;;;;;;;;;;;;;4905768;29;19946;-94
2023/03/26 00:36:41;;;;;;;;;;;;;;;;;;4905874;29;20426;-94
2023/03/26 00:39:07;;;;;;;;;;;;;;;;;;4905402;29;20125;-94
2023/03/26 00:41:35;;;;;;;;;;;;;;;;;;4905700;29;20132;-93
2023/03/26 00:44:01;;;;;;;;;;;;;;;;;;4905434;29;20397;-94
2023/03/26 00:46:27;;;;;;;;;;;;;;;;;;4905292;29;19923;-94
2023/03/26 00:48:57;;;;;;;;;;;;;;;;;;4905626;29;19934;-93
2023/03/26 00:51:23;;;;;;;;;;;;;;;;;;4905306;29;19926;-95
2023/03/26 00:53:49;;;;;;;;;;;;;;;;;;4905390;29;19922;-94
2023/03/26 00:56:15;;;;;;;;;;;;;;;;;;4905355;29;19926;-94
2023/03/26 00:58:41;;;;;;;;;;;;;;;;;;4905248;29;19926;-95
2023/03/26 01:01:07;;;;;;;;;;;;;;;;;;4905242;29;20430;-95
2023/03/26 01:03:33;;;;;;;;;;;;;;;;;;4905226;29;19926;-94
2023/03/26 01:06:03;;;;;;;;;;;;;;;;;;4904078;29;19937;-96
2023/03/26 01:08:29;;;;;;;;;;;;;;;;;;4904831;29;20390;-95
2023/03/26 01:11:02;;;;;;;;;;;;;;;;;;4905182;29;19922;-94
2023/03/26 01:13:28;;;;;;;;;;;;;;;;;;4905545;29;19926;-95
2023/03/26 01:19:21;;;;;;;;;;;;;;;;;;4881720;29;19979;-96
2023/03/26 01:28:07;;;;;;;;;;;;;;;;;;4909060;29;19930;-96
2023/03/26 01:30:41;;;;;;;;;;;;;;;;;;4920124;29;19923;-96
2023/03/26 01:33:14;;;;;;;;;;;;;;;;;;4904689;29;19923;-96
2023/03/26 01:35:51;;;;;;;;;;;;;;;;;;4905489;29;19970;-96
2023/03/26 01:38:31;;;;;;;;;;;;;;;;;;;;;
2023/03/26 01:43:53;;;;;;;;;;;;;;;;;;4914015;29;19927;-96
2023/03/26 01:46:29;;;;;;;;;;;;;;;;;;;;;
2023/03/26 01:49:11;;;;;;;;;;;;;;;;;;4921130;29;20002;-96
2023/03/26 01:52:12;;;;;;;;;;;;;;;;;;4919514;29;19946;-96
2023/03/26 01:55:02;;;;;;;;;;;;;;;;;;4920999;29;20009;-96
2023/03/26 01:57:27;;;;;;;;;;;;;;;;;;4919712;29;20397;-94
2023/03/26 01:59:54;;;;;;;;;;;;;;;;;;4904138;29;19930;-94
2023/03/26 02:02:20;;;;;;;;;;;;;;;;;;4904187;29;19922;-95
2023/03/26 02:04:51;;;;;;;;;;;;;;;;;;4904201;29;19938;-95
2023/03/26 02:07:20;;;;;;;;;;;;;;;;;;4904600;29;19927;-94
2023/03/26 02:09:48;;;;;;;;;;;;;;;;;;4904096;29;20021;-94
2023/03/26 02:12:14;;;;;;;;;;;;;;;;;;4904335;29;19984;-94
2023/03/26 02:14:41;;;;;;;;;;;;;;;;;;4904022;29;20400;-93
2023/03/26 02:17:08;;;;;;;;;;;;;;;;;;4904005;29;20400;-95
2023/03/26 02:19:34;;;;;;;;;;;;;;;;;;4903833;29;20367;-92
2023/03/26 02:22:00;;;;;;;;;;;;;;;;;;4904048;29;19923;-91
2023/03/26 02:24:26;;;;;;;;;;;;;;;;;;4904282;29;19929;-93
2023/03/26 02:26:52;;;;;;;;;;;;;;;;;;4904042;29;19923;-92
2023/03/26 02:29:19;;;;;;;;;;;;;;;;;;4904073;29;19927;-93
2023/03/26 02:31:52;;;;;;;;;;;;;;;;;;4903865;29;19945;-96
2023/03/26 02:34:21;;;;;;;;;;;;;;;;;;4903538;29;19923;-96
2023/03/26 02:36:51;;;;;;;;;;;;;;;;;;4918960;29;19923;-94
2023/03/26 02:39:17;;;;;;;;;;;;;;;;;;4904129;29;20030;-94
2023/03/26 02:41:43;;;;;;;;;;;;;;;;;;4903972;29;20433;-93
2023/03/26 02:44:09;;;;;;;;;;;;;;;;;;4905505;29;20451;-93
2023/03/26 02:46:35;;;;;;;;;;;;;;;;;;4907648;29;19922;-93
2023/03/26 02:49:01;;;;;;;;;;;;;;;;;;4909822;29;20046;-94
2023/03/26 02:51:27;;;;;;;;;;;;;;;;;;4908972;29;20363;-95
2023/03/26 02:53:53;;;;;;;;;;;;;;;;;;4909676;29;20294;-92
2023/03/26 02:56:19;;;;;;;;;;;;;;;;;;4914753;29;19929;-93
2023/03/26 02:58:48;;;;;;;;;;;;;;;;;;4913926;29;19978;-93
2023/03/26 03:01:17;;;;;;;;;;;;;;;;;;4921521;29;19965;-96
2023/03/26 03:03:43;;;;;;;;;;;;;;;;;;4916295;29;20013;-94
2023/03/26 03:06:08;;;;;;;;;;;;;;;;;;4912025;29;20016;-94
2023/03/26 03:08:34;;;;;;;;;;;;;;;;;;4909438;29;19946;-93
2023/03/26 03:11:00;;;;;;;;;;;;;;;;;;4909056;29;19910;-92
2023/03/26 03:13:26;;;;;;;;;;;;;;;;;;4908655;29;19961;-94
2023/03/26 03:15:52;;;;;;;;;;;;;;;;;;4915355;29;19947;-94
2023/03/26 03:18:18;;;;;;;;;;;;;;;;;;4915692;29;19977;-93
2023/03/26 03:20:44;;;;;;;;;;;;;;;;;;4914346;29;19922;-93
2023/03/26 03:23:10;;;;;;;;;;;;;;;;;;4914629;29;19922;-93
2023/03/26 03:25:37;;;;;;;;;;;;;;;;;;4909627;29;19923;-94
2023/03/26 03:28:03;;;;;;;;;;;;;;;;;;4907362;29;20123;-93
2023/03/26 03:30:29;;;;;;;;;;;;;;;;;;4922710;29;20013;-93
2023/03/26 03:32:57;;;;;;;;;;;;;;;;;;4906759;29;19927;-93
2023/03/26 03:35:23;;;;;;;;;;;;;;;;;;4906543;29;19923;-96
2023/03/26 03:37:49;;;;;;;;;;;;;;;;;;4906781;29;20025;-95
2023/03/26 03:40:15;;;;;;;;;;;;;;;;;;4906441;29;19958;-93
2023/03/26 03:42:40;;;;;;;;;;;;;;;;;;4906800;29;19922;-93
2023/03/26 03:45:06;;;;;;;;;;;;;;;;;;4906645;29;20331;-92
2023/03/26 03:47:32;;;;;;;;;;;;;;;;;;4906418;29;20319;-93
2023/03/26 03:50:01;;;;;;;;;;;;;;;;;;4906785;29;20014;-94
2023/03/26 03:52:27;;;;;;;;;;;;;;;;;;4906723;29;19930;-94
2023/03/26 03:54:53;;;;;;;;;;;;;;;;;;4905990;29;19970;-95
2023/03/26 03:57:20;;;;;;;;;;;;;;;;;;4905208;29;19973;-94
2023/03/26 03:59:46;;;;;;;;;;;;;;;;;;4906128;29;19927;-93
2023/03/26 04:02:12;;;;;;;;;;;;;;;;;;4905965;29;20077;-95
2023/03/26 04:04:41;;;;;;;;;;;;;;;;;;4906151;29;19923;-95
2023/03/26 04:07:07;;;;;;;;;;;;;;;;;;4905708;29;20390;-95
2023/03/26 04:09:33;;;;;;;;;;;;;;;;;;4905881;29;19929;-96
2023/03/26 04:11:59;;;;;;;;;;;;;;;;;;4906012;29;19982;-96
2023/03/26 04:14:27;;;;;;;;;;;;;;;;;;4905886;29;19922;-96
2023/03/26 04:17:01;;;;;;;;;;;;;;;;;;4922124;29;19929;-96
2023/03/26 04:19:30;;;;;;;;;;;;;;;;;;4905658;29;19934;-96
2023/03/26 04:22:01;;;;;;;;;;;;;;;;;;4906392;29;19945;-96
2023/03/26 04:24:27;;;;;;;;;;;;;;;;;;4906228;29;19946;-96
2023/03/26 04:27:07;;;;;;;;;;;;;;;;;;;;;
2023/03/26 04:29:41;;;;;;;;;;;;;;;;;;4921707;29;19923;-96
2023/03/26 04:32:13;;;;;;;;;;;;;;;;;;4921454;29;20010;-96
2023/03/26 04:34:50;;;;;;;;;;;;;;;;;;4905875;29;19930;-96
2023/03/26 04:37:27;;;;;;;;;;;;;;;;;;4905905;29;19922;-96
2023/03/26 04:39:56;;;;;;;;;;;;;;;;;;4906283;29;19981;-96
2023/03/26 04:42:44;;;;;;;;;;;;;;;;;;4905447;29;19930;-96
2023/03/26 04:45:10;;;;;;;;;;;;;;;;;;4920642;29;20297;-96
2023/03/26 04:47:38;;;;;;;;;;;;;;;;;;4905830;29;20282;-96
2023/03/26 04:50:04;;;;;;;;;;;;;;;;;;4905279;29;19946;-94
2023/03/26 04:52:30;;;;;;;;;;;;;;;;;;4905492;29;19938;-93
2023/03/26 04:54:56;;;;;;;;;;;;;;;;;;4904776;29;20353;-94
2023/03/26 04:57:23;;;;;;;;;;;;;;;;;;4905006;29;19923;-95
2023/03/26 04:59:50;;;;;;;;;;;;;;;;;;4904969;29;20017;-96
2023/03/26 05:02:17;;;;;;;;;;;;;;;;;;4905020;29;20040;-94
2023/03/26 05:04:47;;;;;;;;;;;;;;;;;;4904606;29;20367;-94
2023/03/26 05:07:13;;;;;;;;;;;;;;;;;;4906744;29;19981;-94
2023/03/26 05:09:39;;;;;;;;;;;;;;;;;;4906218;29;20013;-94
2023/03/26 05:12:05;;;;;;;;;;;;;;;;;;4904729;29;20009;-94
2023/03/26 05:14:32;;;;;;;;;;;;;;;;;;4905397;29;19923;-94
2023/03/26 05:16:58;;;;;;;;;;;;;;;;;;4905722;29;19930;-95
2023/03/26 05:19:24;;;;;;;;;;;;;;;;;;4904615;29;19927;-96
2023/03/26 05:21:50;;;;;;;;;;;;;;;;;;4905212;29;20042;-95
2023/03/26 05:24:17;;;;;;;;;;;;;;;;;;4905110;29;19970;-94
2023/03/26 05:26:43;;;;;;;;;;;;;;;;;;4904772;29;20507;-94
2023/03/26 05:29:09;;;;;;;;;;;;;;;;;;4905565;29;20492;-94
2023/03/26 05:31:36;;;;;;;;;;;;;;;;;;4904734;29;19929;-95
2023/03/26 05:34:02;;;;;;;;;;;;;;;;;;4905004;29;19930;-96
2023/03/26 05:36:28;;;;;;;;;;;;;;;;;;4904902;29;19923;-96
2023/03/26 05:38:54;;;;;;;;;;;;;;;;;;4904256;29;19940;-96
2023/03/26 05:41:20;;;;;;;;;;;;;;;;;;4904079;29;20289;-94
2023/03/26 05:43:47;;;;;;;;;;;;;;;;;;4904058;29;19930;-96
2023/03/26 05:46:13;;;;;;;;;;;;;;;;;;4904604;29;19982;-96
2023/03/26 05:48:39;;;;;;;;;;;;;;;;;;4904946;29;19925;-96
2023/03/26 05:51:08;;;;;;;;;;;;;;;;;;4905137;29;19923;-95
2023/03/26 05:53:36;;;;;;;;;;;;;;;;;;4904442;29;20276;-96
2023/03/26 05:56:03;;;;;;;;;;;;;;;;;;4904442;29;19926;-96
2023/03/26 05:58:31;;;;;;;;;;;;;;;;;;4904286;29;19951;-94
2023/03/26 06:00:58;;;;;;;;;;;;;;;;;;4904586;29;19923;-96
2023/03/26 06:03:24;;;;;;;;;;;;;;;;;;4905047;29;19927;-96
2023/03/26 06:05:50;;;;;;;;;;;;;;;;;;4904186;29;19923;-95
2023/03/26 06:08:16;;;;;;;;;;;;;;;;;;4904462;29;19923;-94
2023/03/26 06:10:42;;;;;;;;;;;;;;;;;;4904772;29;19934;-95
2023/03/26 06:13:08;;;;;;;;;;;;;;;;;;4904847;29;19966;-95
2023/03/26 06:15:34;;;;;;;;;;;;;;;;;;4904212;29;19978;-94
2023/03/26 06:18:00;;;;;;;;;;;;;;;;;;4903956;29;20389;-95
2023/03/26 06:20:27;;;;;;;;;;;;;;;;;;4907790;29;19923;-94
2023/03/26 06:22:53;;;;;;;;;;;;;;;;;;4907910;29;20017;-95
2023/03/26 06:25:18;;;;;;;;;;;;;;;;;;4907416;29;20370;-94
2023/03/26 06:27:45;;;;;;;;;;;;;;;;;;4908184;29;19923;-94
2023/03/26 06:30:11;;;;;;;;;;;;;;;;;;4908620;29;19923;-96
2023/03/26 06:32:36;;;;;;;;;;;;;;;;;;4908051;29;19922;-95
2023/03/26 06:35:02;;;;;;;;;;;;;;;;;;4907790;29;19922;-94
2023/03/26 06:37:28;;;;;;;;;;;;;;;;;;4907218;29;19973;-91
2023/03/26 06:39:54;;;;;;;;;;;;;;;;;;4907780;29;19930;-95
2023/03/26 06:42:40;;;;;;;;;;;;;;;;;;4926465;29;19925;-94
2023/03/26 06:45:10;;;;;;;;;;;;;;;;;;4923766;29;19927;-95
2023/03/26 06:47:36;;;;;;;;;;;;;;;;;;4907808;29;19978;-93
2023/03/26 06:50:02;;;;;;;;;;;;;;;;;;4907000;29;19930;-96
2023/03/26 06:52:28;;;;;;;;;;;;;;;;;;4906797;29;19926;-93
2023/03/26 06:54:54;;;;;;;;;;;;;;;;;;4907346;29;20248;-94
2023/03/26 06:57:20;;;;;;;;;;;;;;;;;;4922941;29;19922;-90
2023/03/26 06:59:46;;;;;;;;;;;;;;;;;;4906173;29;20396;-93
2023/03/26 07:02:12;;;;;;;;;;;;;;;;;;4906166;29;20259;-92
2023/03/26 07:04:38;;;;;;;;;;;;;;;;;;4906098;29;20312;-90
2023/03/26 07:07:08;;;;;;;;;;;;;;;;;;4939775;29;19931;-91
2023/03/26 07:09:36;;;;;;;;;;;;;;;;;;4921184;29;19922;-92
2023/03/26 07:12:02;;;;;;;;;;;;;;;;;;4906138;29;19929;-90
2023/03/26 07:14:33;;;;;;;;;;;;;;;;;;4905884;29;19930;-94
2023/03/26 07:16:59;;;;;;;;;;;;;;;;;;4920609;29;19923;-93
2023/03/26 07:19:27;;;;;;;;;;;;;;;;;;4921725;29;19981;-92
2023/03/26 07:21:53;;;;;;;;;;;;;;;;;;4909887;29;20023;-93
2023/03/26 07:24:19;;;;;;;;;;;;;;;;;;4925457;29;19927;-93
2023/03/26 07:26:45;;;;;;;;;;;;;;;;;;4925563;29;19929;-94
2023/03/26 07:29:11;;;;;;;;;;;;;;;;;;4925516;29;20022;-93
2023/03/26 07:31:37;;;;;;;;;;;;;;;;;;4924472;29;19926;-94
2023/03/26 07:34:03;;;;;;;;;;;;;;;;;;4925266;29;19927;-93
2023/03/26 07:36:29;;;;;;;;;;;;;;;;;;4919802;29;19923;-94
2023/03/26 07:38:55;;;;;;;;;;;;;;;;;;4914992;29;19977;-94
2023/03/26 07:41:21;;;;;;;;;;;;;;;;;;4941449;29;19922;-95
2023/03/26 07:43:47;;;;;;;;;;;;;;;;;;4925334;29;19922;-94
2023/03/26 07:46:13;;;;;;;;;;;;;;;;;;4925319;29;19922;-94
2023/03/26 07:48:39;;;;;;;;;;;;;;;;;;4925213;29;19922;-94
2023/03/26 07:51:05;;;;;;;;;;;;;;;;;;4925425;29;19929;-93
2023/03/26 07:53:31;;;;;;;;;;;;;;;;;;4925025;29;19930;-94
2023/03/26 07:55:57;;;;;;;;;;;;;;;;;;4925008;29;19922;-95
2023/03/26 07:58:23;;;;;;;;;;;;;;;;;;4925043;29;19937;-95
2023/03/26 08:00:49;;;;;;;;;;;;;;;;;;4924888;29;20018;-94
2023/03/26 08:03:15;;;;;;;;;;;;;;;;;;4925441;29;19926;-92
2023/03/26 08:05:41;;;;;;;;;;;;;;;;;;4924612;29;19922;-92
2023/03/26 08:08:07;;;;;;;;;;;;;;;;;;4924157;29;20310;-94
2023/03/26 08:10:34;;;;;;;;;;;;;;;;;;4940405;29;19926;-92
2023/03/26 08:13:01;;;;;;;;;;;;;;;;;;4924274;29;19922;-92
2023/03/26 08:15:28;;;;;;;;;;;;;;;;;;4924671;29;19978;-92
2023/03/26 08:17:54;;;;;;;;;;;;;;;;;;4924329;29;19937;-90
2023/03/26 08:20:20;;;;;;;;;;;;;;;;;;4924251;29;19922;-90
2023/03/26 08:22:49;;;;;;;;;;;;;;;;;;4923953;29;19923;-89
2023/03/26 08:25:18;;;;;;;;;;;;;;;;;;4923274;29;19922;-92
2023/03/26 08:27:45;;;;;;;;;;;;;;;;;;4940537;29;19922;-91
2023/03/26 08:30:11;;;;;;;;;;;;;;;;;;4923868;29;19929;-91
2023/03/26 08:32:36;;;;;;;;;;;;;;;;;;4924000;29;19927;-90
2023/03/26 08:35:03;;;;;;;;;;;;;;;;;;4923461;28;20396;-92
2023/03/26 08:37:32;;;;;;;;;;;;;;;;;;4924011;29;19969;-90
2023/03/26 08:40:01;;;;;;;;;;;;;;;;;;4923829;29;19922;-94
2023/03/26 08:42:27;;;;;;;;;;;;;;;;;;4924332;29;19922;-93
2023/03/26 08:44:53;;;;;;;;;;;;;;;;;;4923825;28;20477;-91
2023/03/26 08:47:19;;;;;;;;;;;;;;;;;;4923958;29;20005;-94
2023/03/26 08:49:45;;;;;;;;;;;;;;;;;;4924113;29;20434;-94
2023/03/26 08:52:11;;;;;;;;;;;;;;;;;;4923962;29;19922;-95
2023/03/26 08:54:36;;;;;;;;;;;;;;;;;;4924103;29;20397;-94
2023/03/26 08:57:02;;;;;;;;;;;;;;;;;;4923766;29;19929;-91
2023/03/26 08:59:28;;;;;;;;;;;;;;;;;;4925310;29;19927;-93
2023/03/26 09:01:54;;;;;;;;;;;;;;;;;;4924201;29;19922;-93
2023/03/26 09:04:38;;;;;;;;;;;;;;;;;;4924809;29;19928;-96
2023/03/26 09:07:05;;;;;;;;;;;;;;;;;;4923845;29;19986;-92
2023/03/26 09:09:46;;;;;;;;;;;;;;;;;;4939480;29;20377;-93
2023/03/26 09:12:14;;;;;;;;;;;;;;;;;;4938340;29;19970;-93
2023/03/26 09:14:40;;;;;;;;;;;;;;;;;;4922702;29;20017;-92
2023/03/26 09:17:06;;;;;;;;;;;;;;;;;;4922666;29;20392;-92
2023/03/26 09:19:31;;;;;;;;;;;;;;;;;;4922868;29;19926;-94
2023/03/26 09:21:57;;;;;;;;;;;;;;;;;;4922446;29;19922;-93
2023/03/26 09:24:26;;;;;;;;;;;;;;;;;;4922591;29;19926;-94
2023/03/26 09:26:53;;;;;;;;;;;;;;;;;;4932921;29;19922;-92
2023/03/26 09:29:18;;;;;;;;;;;;;;;;;;4919858;29;20264;-91
2023/03/26 09:31:44;;;;;;;;;;;;;;;;;;4919400;29;20330;-93
2023/03/26 09:34:10;;;;;;;;;;;;;;;;;;4919731;29;19946;-91
2023/03/26 09:36:38;;;;;;;;;;;;;;;;;;4934949;29;19972;-92
2023/03/26 09:39:08;;;;;;;;;;;;;;;;;;4935847;29;19974;-94
2023/03/26 09:41:48;;;;;;;;;;;;;;;;;;4935936;29;19954;-94
2023/03/26 09:44:17;;;;;;;;;;;;;;;;;;4920535;29;19954;-91
2023/03/26 09:46:43;;;;;;;;;;;;;;;;;;4919432;29;19935;-92
2023/03/26 09:49:09;;;;;;;;;;;;;;;;;;4935882;29;19930;-92
2023/03/26 09:51:39;;;;;;;;;;;;;;;;;;4919740;29;20279;-92
2023/03/26 09:54:05;;;;;;;;;;;;;;;;;;4918590;29;19978;-92
2023/03/26 09:56:45;;;;;;;;;;;;;;;;;;;;;
2023/03/26 09:59:21;;;;;;;;;;;;;;;;;;4929811;29;19927;-95
2023/03/26 10:01:47;;;;;;;;;;;;;;;;;;4920166;29;20283;-93
2023/03/26 10:04:13;;;;;;;;;;;;;;;;;;4919950;29;19933;-91
2023/03/26 10:06:39;;;;;;;;;;;;;;;;;;4919417;29;19975;-91
2023/03/26 10:09:07;;;;;;;;;;;;;;;;;;4919778;29;19972;-92
2023/03/26 10:11:33;;;;;;;;;;;;;;;;;;4919680;29;19974;-92
2023/03/26 10:14:00;;;;;;;;;;;;;;;;;;4919647;29;19923;-91
2023/03/26 10:16:26;;;;;;;;;;;;;;;;;;4920083;29;19922;-93
2023/03/26 10:21:43;;;;;;;;;;;;;;;;;;4935713;29;19926;-92
2023/03/26 10:24:09;;;;;;;;;;;;;;;;;;4919842;29;20295;-93
2023/03/26 10:26:35;;;;;;;;;;;;;;;;;;4921775;29;19930;-94
2023/03/26 10:32:20;;;;;;;;;;;;;;;;;;4922911;29;19955;-96
2023/03/26 10:40:04;;;;;;;;;;;;;;;;;;5014399;23;19995;-96
2023/03/26 10:42:35;;;;;;;;;;;;;;;;;;4941665;29;19933;-94
2023/03/26 10:45:01;;;;;;;;;;;;;;;;;;4920862;29;19977;-93
2023/03/26 10:47:27;;;;;;;;;;;;;;;;;;4904669;29;19922;-93
2023/03/26 10:49:53;;;;;;;;;;;;;;;;;;4903807;29;19927;-94
2023/03/26 10:52:19;;;;;;;;;;;;;;;;;;4904327;29;19923;-92
2023/03/26 10:54:48;;;;;;;;;;;;;;;;;;4905876;29;19922;-96
2023/03/26 10:57:23;;;;;;;;;;;;;;;;;;4910622;29;19930;-96
2023/03/26 10:59:49;;;;;;;;;;;;;;;;;;4904483;29;20390;-92
2023/03/26 11:02:15;;;;;;;;;;;;;;;;;;4903772;29;19934;-96
2023/03/26 11:30:59;;;;;;;;;;;;;;;;;;4978039;23;19933;-95
2023/03/26 11:33:25;;;;;;;;;;;;;;;;;;4929186;29;19973;-96
2023/03/26 11:35:51;;;;;;;;;;;;;;;;;;4919509;29;19922;-96
2023/03/26 11:38:18;;;;;;;;;;;;;;;;;;4909005;29;19927;-94
2023/03/26 11:40:47;;;;;;;;;;;;;;;;;;4912189;29;19922;-96
2023/03/26 11:43:15;;;;;;;;;;;;;;;;;;4911416;29;19923;-96
2023/03/26 12:35:48;;;;;;;;;;;;;;;;;;4920271;29;19930;-96
2023/03/26 12:38:14;;;;;;;;;;;;;;;;;;4922260;29;19927;-94
2023/03/26 12:40:54;;;;;;;;;;;;;;;;;;4922647;29;20285;-96
2023/03/26 12:54:52;;;;;;;;;;;;;;;;;;5913515;23;19909;-94
2023/03/26 13:00:27;;;;;;;;;;;;;;;;;;4938276;29;19926;-93
2023/03/26 13:03:16;;;;;;;;;;;;;;;;;;4921826;29;20279;-95
2023/03/26 13:05:42;;;;;;;;;;;;;;;;;;4906366;29;19922;-92
2023/03/26 13:08:08;;;;;;;;;;;;;;;;;;4904364;29;19930;-92
2023/03/26 13:10:34;;;;;;;;;;;;;;;;;;4905027;29;19923;-91
2023/03/26 13:13:01;;;;;;;;;;;;;;;;;;4904802;29;19923;-89
2023/03/26 13:15:27;;;;;;;;;;;;;;;;;;4903860;29;20338;-92
2023/03/26 13:17:53;;;;;;;;;;;;;;;;;;4904269;29;19927;-91
2023/03/26 13:20:20;;;;;;;;;;;;;;;;;;4910134;29;19934;-91
2023/03/26 13:22:46;;;;;;;;;;;;;;;;;;4904003;29;20112;-90
2023/03/26 13:25:12;;;;;;;;;;;;;;;;;;4904060;29;19923;-92
2023/03/26 13:27:38;;;;;;;;;;;;;;;;;;4903325;29;19923;-91
2023/03/26 13:30:04;;;;;;;;;;;;;;;;;;4903408;29;19993;-90
2023/03/26 13:32:30;;;;;;;;;;;;;;;;;;4904003;29;19926;-93
2023/03/26 13:34:56;;;;;;;;;;;;;;;;;;4903851;29;20008;-93
2023/03/26 13:37:23;;;;;;;;;;;;;;;;;;4904312;29;19962;-93
2023/03/26 13:39:49;;;;;;;;;;;;;;;;;;4903631;29;19923;-92
2023/03/26 13:42:21;;;;;;;;;;;;;;;;;;4903632;29;19927;-96
2023/03/26 13:44:47;;;;;;;;;;;;;;;;;;4903770;29;19954;-91
2023/03/26 13:47:13;;;;;;;;;;;;;;;;;;4903361;29;19927;-95
2023/03/26 13:49:39;;;;;;;;;;;;;;;;;;4920034;29;19923;-93
2023/03/26 13:52:05;;;;;;;;;;;;;;;;;;4905286;29;20286;-92
2023/03/26 13:54:32;;;;;;;;;;;;;;;;;;4919890;29;19930;-95
2023/03/26 13:56:57;;;;;;;;;;;;;;;;;;4903965;29;19990;-93
2023/03/26 14:02:32;;;;;;;;;;;;;;;;;;4937758;29;19925;-94
2023/03/26 14:05:03;;;;;;;;;;;;;;;;;;4919814;29;20375;-91
2023/03/26 14:07:32;;;;;;;;;;;;;;;;;;4919505;29;22678;-94
2023/03/26 14:09:59;;;;;;;;;;;;;;;;;;4919659;29;19923;-94
2023/03/26 14:15:19;;;;;;;;;;;;;;;;;;4937081;29;19923;-94
2023/03/26 14:20:57;;;;;;;;;;;;;;;;;;4900200;29;20003;-94
2023/03/26 14:23:23;;;;;;;;;;;;;;;;;;4901347;29;20075;-95
2023/03/26 14:25:49;;;;;;;;;;;;;;;;;;4905622;29;19953;-94
2023/03/26 14:28:15;;;;;;;;;;;;;;;;;;4918558;29;19926;-95
2023/03/26 14:30:41;;;;;;;;;;;;;;;;;;4903421;29;19927;-94
2023/03/26 14:33:09;;;;;;;;;;;;;;;;;;4903859;29;19926;-92
2023/03/26 14:35:38;;;;;;;;;;;;;;;;;;4920395;29;20003;-93
2023/03/26 14:38:06;;;;;;;;;;;;;;;;;;4902525;29;19977;-92
2023/03/26 14:40:34;;;;;;;;;;;;;;;;;;4921686;29;19923;-93
2023/03/26 14:43:03;;;;;;;;;;;;;;;;;;4923741;29;19923;-93
2023/03/26 14:45:30;;;;;;;;;;;;;;;;;;4922697;29;20346;-93
2023/03/26 14:47:56;;;;;;;;;;;;;;;;;;4907077;29;20022;-91
2023/03/26 14:50:22;;;;;;;;;;;;;;;;;;4906647;29;20286;-92
2023/03/26 14:52:54;;;;;;;;;;;;;;;;;;4922907;29;20013;-92
2023/03/26 14:55:20;;;;;;;;;;;;;;;;;;4906814;29;19933;-91
2023/03/26 14:57:46;;;;;;;;;;;;;;;;;;4922723;29;20005;-93
2023/03/26 15:00:14;;;;;;;;;;;;;;;;;;4923247;29;19974;-92
2023/03/26 15:02:40;;;;;;;;;;;;;;;;;;4906523;29;19929;-92
2023/03/26 15:05:07;;;;;;;;;;;;;;;;;;4906129;29;19923;-92
2023/03/26 15:07:32;;;;;;;;;;;;;;;;;;4906978;29;20375;-92
2023/03/26 15:09:59;;;;;;;;;;;;;;;;;;4922249;29;19929;-92
2023/03/26 15:12:25;;;;;;;;;;;;;;;;;;4906522;29;20013;-93
2023/03/26 15:14:51;;;;;;;;;;;;;;;;;;4906732;29;19962;-92
2023/03/26 15:17:16;;;;;;;;;;;;;;;;;;4906489;29;19923;-91
2023/03/26 15:19:42;;;;;;;;;;;;;;;;;;4906278;29;20041;-91
2023/03/26 15:22:11;;;;;;;;;;;;;;;;;;4905522;29;19926;-91
2023/03/26 15:24:40;;;;;;;;;;;;;;;;;;4905903;29;19926;-90
2023/03/26 15:27:07;;;;;;;;;;;;;;;;;;4905707;29;20022;-94
2023/03/26 15:29:36;;;;;;;;;;;;;;;;;;4922171;29;19923;-91
2023/03/26 15:32:02;;;;;;;;;;;;;;;;;;4905403;29;20416;-92
2023/03/26 15:34:29;;;;;;;;;;;;;;;;;;4921454;29;20018;-91
2023/03/26 15:36:55;;;;;;;;;;;;;;;;;;4905928;29;20363;-92
2023/03/26 15:39:22;;;;;;;;;;;;;;;;;;4906459;29;20394;-88
2023/03/26 15:41:52;;;;;;;;;;;;;;;;;;4909141;29;19927;-92
2023/03/26 15:44:18;;;;;;;;;;;;;;;;;;4907340;29;19998;-93
2023/03/26 15:46:47;;;;;;;;;;;;;;;;;;4905940;29;19923;-91
2023/03/26 15:49:15;;;;;;;;;;;;;;;;;;4906287;29;20009;-92
2023/03/26 15:51:51;;;;;;;;;;;;;;;;;;4923907;29;20370;-92
2023/03/26 15:54:17;;;;;;;;;;;;;;;;;;4906181;29;19926;-92
2023/03/26 15:56:47;;;;;;;;;;;;;;;;;;4905803;29;19927;-91
2023/03/26 15:59:15;;;;;;;;;;;;;;;;;;4905337;29;19931;-91
2023/03/26 16:01:48;;;;;;;;;;;;;;;;;;4935123;29;20354;-91
2023/03/26 16:04:15;;;;;;;;;;;;;;;;;;4920313;29;20287;-92
2023/03/26 16:06:45;;;;;;;;;;;;;;;;;;4905687;29;20381;-93
2023/03/26 16:09:16;;;;;;;;;;;;;;;;;;4922159;29;19946;-92
2023/03/26 16:11:45;;;;;;;;;;;;;;;;;;4921718;29;19942;-92
2023/03/26 16:23:05;;;;;;;;;;;;;;;;;;4937541;29;20010;-95
2023/03/26 16:25:34;;;;;;;;;;;;;;;;;;4921893;29;19970;-94
2023/03/26 16:28:00;;;;;;;;;;;;;;;;;;4905372;29;20013;-91
2023/03/26 16:30:35;;;;;;;;;;;;;;;;;;4923402;29;19922;-92
2023/03/26 16:33:04;;;;;;;;;;;;;;;;;;4924308;29;19922;-96
2023/03/26 16:35:30;;;;;;;;;;;;;;;;;;4906236;29;19932;-93
2023/03/26 17:04:52;;;;;;;;;;;;;;;;;;5139344;23;19941;-94
2023/03/26 17:07:18;;;;;;;;;;;;;;;;;;4905450;29;19927;-95
2023/03/26 17:09:45;;;;;;;;;;;;;;;;;;4921056;29;19930;-96
2023/03/26 17:12:11;;;;;;;;;;;;;;;;;;4905341;29;19966;-96
2023/03/26 17:14:37;;;;;;;;;;;;;;;;;;4904544;29;19923;-93
2023/03/26 17:17:03;;;;;;;;;;;;;;;;;;4904801;29;19927;-95
2023/03/26 17:19:32;;;;;;;;;;;;;;;;;;4905313;29;20607;-94
2023/03/26 17:21:58;;;;;;;;;;;;;;;;;;4905150;29;19922;-94
2023/03/26 17:24:25;;;;;;;;;;;;;;;;;;4904734;29;19922;-94
2023/03/26 17:26:51;;;;;;;;;;;;;;;;;;4904940;29;20355;-95
2023/03/26 17:29:17;;;;;;;;;;;;;;;;;;4904095;29;19930;-95
2023/03/26 17:31:43;;;;;;;;;;;;;;;;;;4904584;29;19946;-95
2023/03/26 17:34:09;;;;;;;;;;;;;;;;;;4904956;29;19930;-95
2023/03/26 17:36:38;;;;;;;;;;;;;;;;;;4904854;29;20408;-94
2023/03/26 17:39:04;;;;;;;;;;;;;;;;;;4904324;29;20424;-94
2023/03/26 17:41:30;;;;;;;;;;;;;;;;;;4904462;29;20261;-94
2023/03/26 17:43:56;;;;;;;;;;;;;;;;;;4904511;29;19951;-92
2023/03/26 17:46:22;;;;;;;;;;;;;;;;;;4904575;29;20408;-93
2023/03/26 17:48:48;;;;;;;;;;;;;;;;;;4904797;29;19922;-94
2023/03/26 17:51:14;;;;;;;;;;;;;;;;;;4904408;29;20022;-95
2023/03/26 17:59:39;;;;;;;;;;;;;;;;;;4941146;29;19962;-96
2023/03/26 18:02:16;;;;;;;;;;;;;;;;;;4923926;29;19922;-96
2023/03/26 18:04:51;;;;;;;;;;;;;;;;;;4920562;29;19926;-94
2023/03/26 18:07:27;;;;;;;;;;;;;;;;;;4906311;29;19973;-96
2023/03/26 18:09:53;;;;;;;;;;;;;;;;;;4915713;29;19983;-95
2023/03/26 18:12:19;;;;;;;;;;;;;;;;;;4919797;29;19923;-94
2023/03/26 18:14:45;;;;;;;;;;;;;;;;;;4919121;29;20413;-94
2023/03/26 18:17:11;;;;;;;;;;;;;;;;;;4919814;29;19931;-96
2023/03/26 18:19:37;;;;;;;;;;;;;;;;;;4920030;29;20393;-96
2023/03/26 18:22:03;;;;;;;;;;;;;;;;;;4922812;29;19941;-96
2023/03/26 18:24:29;;;;;;;;;;;;;;;;;;4924006;29;19944;-96
2023/03/26 18:26:59;;;;;;;;;;;;;;;;;;4909602;29;19926;-96
2023/03/26 18:29:25;;;;;;;;;;;;;;;;;;4904072;29;19929;-96
2023/03/26 18:35:04;;;;;;;;;;;;;;;;;;4935079;29;19921;-96
2023/03/26 18:37:40;;;;;;;;;;;;;;;;;;;;;
2023/03/26 18:40:14;;;;;;;;;;;;;;;;;;4916369;29;19930;-94
2023/03/26 18:42:53;;;;;;;;;;;;;;;;;;4913208;29;19929;-96
2023/03/26 18:48:49;;;;;;;;;;;;;;;;;;4908999;29;19926;-96
2023/03/26 18:51:54;;;;;;;;;;;;;;;;;;4918490;29;19923;-93
2023/03/26 19:05:03;;;;;;;;;;;;;;;;;;5041096;23;19927;-93
2023/03/26 19:07:47;;;;;;;;;;;;;;;;;;4918452;29;19962;-94
2023/03/26 19:10:14;;;;;;;;;;;;;;;;;;4886354;29;20304;-92
2023/03/26 19:12:40;;;;;;;;;;;;;;;;;;4885628;29;20285;-91
2023/03/26 19:15:09;;;;;;;;;;;;;;;;;;4903155;29;19955;-93
2023/03/26 19:17:38;;;;;;;;;;;;;;;;;;4903900;29;19934;-93
2023/03/26 19:20:08;;;;;;;;;;;;;;;;;;4917633;29;19927;-92
2023/03/26 19:22:34;;;;;;;;;;;;;;;;;;4896709;29;19970;-93
2023/03/26 19:25:00;;;;;;;;;;;;;;;;;;4899630;29;19966;-93
2023/03/26 19:27:26;;;;;;;;;;;;;;;;;;4902275;29;19923;-93
2023/03/26 19:30:01;;;;;;;;;;;;;;;;;;4903578;29;19923;-93
2023/03/26 19:32:27;;;;;;;;;;;;;;;;;;4903606;29;20318;-91
2023/03/26 19:34:53;;;;;;;;;;;;;;;;;;4903144;29;20351;-91
2023/03/26 19:37:19;;;;;;;;;;;;;;;;;;4903301;29;19923;-92
2023/03/26 19:39:45;;;;;;;;;;;;;;;;;;4903389;29;19928;-93
2023/03/26 19:42:11;;;;;;;;;;;;;;;;;;4903007;29;20386;-93
2023/03/26 19:44:41;;;;;;;;;;;;;;;;;;4903228;29;19973;-92
2023/03/26 19:47:07;;;;;;;;;;;;;;;;;;4903230;29;20289;-92
2023/03/26 19:49:33;;;;;;;;;;;;;;;;;;4903593;29;20368;-91
2023/03/26 19:51:59;;;;;;;;;;;;;;;;;;4902619;29;19989;-93
2023/03/26 19:54:25;;;;;;;;;;;;;;;;;;4902832;29;19923;-92